sensor_id;sensor_type;location;lat;lon;timestamp;P1;durP1;ratioP1;P2;durP2;ratioP2
44145;SDS011;29809;52.432;4.780;2023-04-01T00:01:37;11.82;;;3.78;;
44145;SDS011;29809;52.432;4.780;2023-04-01T00:04:02;15.48;;;3.95;;
44145;SDS011;29809;52.432;4.780;2023-04-01T00:06:28;11.45;;;3.88;;
44145;SDS011;29809;52.432;4.780;2023-04-01T00:08:53;15.00;;;3.45;;
44145;SDS011;29809;52.432;4.780;2023-04-01T00:11:18;13.32;;;3.78;;
44145;SDS011;29809;52.432;4.780;2023-04-01T00:13:44;11.40;;;3.42;;
44145;SDS011;29809;52.432;4.780;2023-04-01T00:16:09;9.73;;;3.17;;
44145;SDS011;29809;52.432;4.780;2023-04-01T00:18:35;8.95;;;3.33;;
44145;SDS011;29809;52.432;4.780;2023-04-01T00:21:00;6.70;;;2.83;;
44145;SDS011;29809;52.432;4.780;2023-04-01T00:23:25;6.55;;;3.13;;
44145;SDS011;29809;52.432;4.780;2023-04-01T00:25:51;8.10;;;2.80;;
44145;SDS011;29809;52.432;4.780;2023-04-01T00:28:17;8.60;;;3.35;;
44145;SDS011;29809;52.432;4.780;2023-04-01T00:30:42;8.30;;;2.65;;
44145;SDS011;29809;52.432;4.780;2023-04-01T00:33:07;9.23;;;3.05;;
44145;SDS011;29809;52.432;4.780;2023-04-01T00:35:32;8.00;;;3.42;;
44145;SDS011;29809;52.432;4.780;2023-04-01T00:37:58;8.25;;;2.80;;
44145;SDS011;29809;52.432;4.780;2023-04-01T00:42:48;6.75;;;3.03;;
44145;SDS011;29809;52.432;4.780;2023-04-01T00:45:25;7.75;;;2.67;;
44145;SDS011;29809;52.432;4.780;2023-04-01T00:47:51;4.57;;;2.10;;
44145;SDS011;29809;52.432;4.780;2023-04-01T00:50:16;6.45;;;2.55;;
44145;SDS011;29809;52.432;4.780;2023-04-01T00:52:41;6.05;;;2.50;;
44145;SDS011;29809;52.432;4.780;2023-04-01T00:55:07;5.50;;;2.08;;
44145;SDS011;29809;52.432;4.780;2023-04-01T00:57:35;5.93;;;2.33;;
44145;SDS011;29809;52.432;4.780;2023-04-01T01:00:02;5.75;;;2.25;;
44145;SDS011;29809;52.432;4.780;2023-04-01T01:02:28;6.03;;;2.38;;
44145;SDS011;29809;52.432;4.780;2023-04-01T01:04:53;6.80;;;2.55;;
44145;SDS011;29809;52.432;4.780;2023-04-01T01:12:40;4.13;;;2.05;;
44145;SDS011;29809;52.432;4.780;2023-04-01T01:17:49;6.57;;;2.42;;
44145;SDS011;29809;52.432;4.780;2023-04-01T01:31:12;3.67;;;2.20;;
44145;SDS011;29809;52.432;4.780;2023-04-01T01:33:47;5.07;;;2.65;;
44145;SDS011;29809;52.432;4.780;2023-04-01T01:36:15;4.50;;;2.28;;
44145;SDS011;29809;52.432;4.780;2023-04-01T01:38:40;5.88;;;2.35;;
44145;SDS011;29809;52.432;4.780;2023-04-01T01:41:06;3.83;;;2.35;;
44145;SDS011;29809;52.432;4.780;2023-04-01T01:43:33;5.22;;;2.22;;
44145;SDS011;29809;52.432;4.780;2023-04-01T01:46:01;7.97;;;2.70;;
44145;SDS011;29809;52.432;4.780;2023-04-01T01:48:28;5.82;;;2.70;;
44145;SDS011;29809;52.432;4.780;2023-04-01T01:50:54;6.28;;;2.30;;
44145;SDS011;29809;52.432;4.780;2023-04-01T01:53:19;6.05;;;2.67;;
44145;SDS011;29809;52.432;4.780;2023-04-01T01:55:45;5.30;;;2.75;;
44145;SDS011;29809;52.432;4.780;2023-04-01T01:58:19;4.07;;;1.98;;
44145;SDS011;29809;52.432;4.780;2023-04-01T02:00:46;5.85;;;2.78;;
44145;SDS011;29809;52.432;4.780;2023-04-01T02:03:13;5.32;;;2.75;;
44145;SDS011;29809;52.432;4.780;2023-04-01T02:05:39;5.00;;;2.83;;
44145;SDS011;29809;52.432;4.780;2023-04-01T02:08:10;3.70;;;2.42;;
44145;SDS011;29809;52.432;4.780;2023-04-01T02:10:37;8.55;;;2.95;;
44145;SDS011;29809;52.432;4.780;2023-04-01T02:13:05;7.30;;;3.05;;
44145;SDS011;29809;52.432;4.780;2023-04-01T02:15:33;6.80;;;2.95;;
44145;SDS011;29809;52.432;4.780;2023-04-01T02:18:02;4.63;;;2.80;;
44145;SDS011;29809;52.432;4.780;2023-04-01T02:20:28;6.82;;;2.40;;
44145;SDS011;29809;52.432;4.780;2023-04-01T02:22:54;7.97;;;2.45;;
44145;SDS011;29809;52.432;4.780;2023-04-01T02:25:22;4.40;;;2.28;;
44145;SDS011;29809;52.432;4.780;2023-04-01T02:27:48;5.05;;;2.58;;
44145;SDS011;29809;52.432;4.780;2023-04-01T02:30:15;4.60;;;2.50;;
44145;SDS011;29809;52.432;4.780;2023-04-01T02:32:40;6.13;;;2.85;;
44145;SDS011;29809;52.432;4.780;2023-04-01T02:35:07;5.50;;;2.60;;
44145;SDS011;29809;52.432;4.780;2023-04-01T02:37:33;5.63;;;2.45;;
44145;SDS011;29809;52.432;4.780;2023-04-01T02:40:00;4.55;;;2.00;;
44145;SDS011;29809;52.432;4.780;2023-04-01T02:42:25;4.35;;;2.30;;
44145;SDS011;29809;52.432;4.780;2023-04-01T02:44:50;4.30;;;1.88;;
44145;SDS011;29809;52.432;4.780;2023-04-01T02:47:16;3.60;;;2.40;;
44145;SDS011;29809;52.432;4.780;2023-04-01T02:49:41;3.58;;;2.03;;
44145;SDS011;29809;52.432;4.780;2023-04-01T02:52:06;3.55;;;2.25;;
44145;SDS011;29809;52.432;4.780;2023-04-01T02:54:32;4.43;;;2.40;;
44145;SDS011;29809;52.432;4.780;2023-04-01T02:56:57;4.60;;;1.95;;
44145;SDS011;29809;52.432;4.780;2023-04-01T02:59:22;2.50;;;1.98;;
44145;SDS011;29809;52.432;4.780;2023-04-01T03:01:47;2.30;;;1.50;;
44145;SDS011;29809;52.432;4.780;2023-04-01T03:04:13;2.75;;;1.75;;
44145;SDS011;29809;52.432;4.780;2023-04-01T03:06:38;2.47;;;2.28;;
44145;SDS011;29809;52.432;4.780;2023-04-01T03:09:03;2.35;;;1.95;;
44145;SDS011;29809;52.432;4.780;2023-04-01T03:11:28;2.63;;;1.77;;
44145;SDS011;29809;52.432;4.780;2023-04-01T03:13:53;2.08;;;1.88;;
44145;SDS011;29809;52.432;4.780;2023-04-01T03:16:19;2.92;;;1.90;;
44145;SDS011;29809;52.432;4.780;2023-04-01T03:18:44;2.67;;;1.83;;
44145;SDS011;29809;52.432;4.780;2023-04-01T03:21:13;2.85;;;2.13;;
44145;SDS011;29809;52.432;4.780;2023-04-01T03:23:39;2.53;;;1.90;;
44145;SDS011;29809;52.432;4.780;2023-04-01T03:26:04;2.17;;;1.98;;
44145;SDS011;29809;52.432;4.780;2023-04-01T03:28:30;2.45;;;1.85;;
44145;SDS011;29809;52.432;4.780;2023-04-01T03:30:55;3.17;;;2.30;;
44145;SDS011;29809;52.432;4.780;2023-04-01T03:33:20;7.90;;;2.40;;
44145;SDS011;29809;52.432;4.780;2023-04-01T03:35:45;2.88;;;1.80;;
44145;SDS011;29809;52.432;4.780;2023-04-01T03:38:11;2.22;;;2.03;;
44145;SDS011;29809;52.432;4.780;2023-04-01T03:40:36;3.38;;;2.35;;
44145;SDS011;29809;52.432;4.780;2023-04-01T03:43:03;2.28;;;2.00;;
44145;SDS011;29809;52.432;4.780;2023-04-01T03:45:31;3.03;;;2.05;;
44145;SDS011;29809;52.432;4.780;2023-04-01T03:47:57;3.97;;;2.22;;
44145;SDS011;29809;52.432;4.780;2023-04-01T03:50:22;2.03;;;1.83;;
44145;SDS011;29809;52.432;4.780;2023-04-01T03:52:47;2.97;;;1.85;;
44145;SDS011;29809;52.432;4.780;2023-04-01T03:55:12;2.22;;;1.80;;
44145;SDS011;29809;52.432;4.780;2023-04-01T03:57:38;1.98;;;1.73;;
44145;SDS011;29809;52.432;4.780;2023-04-01T04:00:03;1.80;;;1.70;;
44145;SDS011;29809;52.432;4.780;2023-04-01T04:02:28;2.20;;;2.00;;
44145;SDS011;29809;52.432;4.780;2023-04-01T04:04:54;1.90;;;1.70;;
44145;SDS011;29809;52.432;4.780;2023-04-01T04:07:19;2.53;;;1.70;;
44145;SDS011;29809;52.432;4.780;2023-04-01T04:09:44;1.80;;;1.58;;
44145;SDS011;29809;52.432;4.780;2023-04-01T04:12:10;2.10;;;1.92;;
44145;SDS011;29809;52.432;4.780;2023-04-01T04:14:35;2.80;;;2.20;;
44145;SDS011;29809;52.432;4.780;2023-04-01T04:17:00;2.03;;;1.83;;
44145;SDS011;29809;52.432;4.780;2023-04-01T04:19:25;1.77;;;1.40;;
44145;SDS011;29809;52.432;4.780;2023-04-01T04:21:51;2.10;;;1.90;;
44145;SDS011;29809;52.432;4.780;2023-04-01T04:24:16;3.10;;;1.67;;
44145;SDS011;29809;52.432;4.780;2023-04-01T04:26:41;2.08;;;1.55;;
44145;SDS011;29809;52.432;4.780;2023-04-01T04:29:06;1.80;;;1.70;;
44145;SDS011;29809;52.432;4.780;2023-04-01T04:31:32;2.20;;;1.98;;
44145;SDS011;29809;52.432;4.780;2023-04-01T04:33:58;2.65;;;1.90;;
44145;SDS011;29809;52.432;4.780;2023-04-01T04:36:23;2.30;;;1.95;;
44145;SDS011;29809;52.432;4.780;2023-04-01T04:38:49;3.72;;;1.70;;
44145;SDS011;29809;52.432;4.780;2023-04-01T04:41:15;1.90;;;1.80;;
44145;SDS011;29809;52.432;4.780;2023-04-01T04:43:42;2.53;;;1.80;;
44145;SDS011;29809;52.432;4.780;2023-04-01T04:46:13;3.17;;;1.90;;
44145;SDS011;29809;52.432;4.780;2023-04-01T04:48:38;1.90;;;1.80;;
44145;SDS011;29809;52.432;4.780;2023-04-01T04:51:03;3.60;;;2.33;;
44145;SDS011;29809;52.432;4.780;2023-04-01T04:53:28;2.00;;;1.80;;
44145;SDS011;29809;52.432;4.780;2023-04-01T04:55:54;2.00;;;1.70;;
44145;SDS011;29809;52.432;4.780;2023-04-01T04:58:19;1.98;;;1.67;;
44145;SDS011;29809;52.432;4.780;2023-04-01T05:00:45;2.08;;;1.80;;
44145;SDS011;29809;52.432;4.780;2023-04-01T05:03:11;2.20;;;1.83;;
44145;SDS011;29809;52.432;4.780;2023-04-01T05:05:36;1.73;;;1.63;;
44145;SDS011;29809;52.432;4.780;2023-04-01T05:08:02;2.08;;;1.95;;
44145;SDS011;29809;52.432;4.780;2023-04-01T05:10:27;2.17;;;1.83;;
44145;SDS011;29809;52.432;4.780;2023-04-01T05:12:53;3.35;;;1.98;;
44145;SDS011;29809;52.432;4.780;2023-04-01T05:15:18;2.60;;;2.13;;
44145;SDS011;29809;52.432;4.780;2023-04-01T05:17:43;2.22;;;1.83;;
44145;SDS011;29809;52.432;4.780;2023-04-01T05:20:08;2.10;;;1.90;;
44145;SDS011;29809;52.432;4.780;2023-04-01T05:22:34;2.30;;;2.10;;
44145;SDS011;29809;52.432;4.780;2023-04-01T05:24:59;3.10;;;2.17;;
44145;SDS011;29809;52.432;4.780;2023-04-01T05:27:25;2.13;;;1.92;;
44145;SDS011;29809;52.432;4.780;2023-04-01T05:29:50;4.45;;;2.35;;
44145;SDS011;29809;52.432;4.780;2023-04-01T05:32:15;2.50;;;2.17;;
44145;SDS011;29809;52.432;4.780;2023-04-01T05:34:40;2.95;;;2.30;;
44145;SDS011;29809;52.432;4.780;2023-04-01T05:37:06;3.20;;;2.90;;
44145;SDS011;29809;52.432;4.780;2023-04-01T05:39:35;4.78;;;2.60;;
44145;SDS011;29809;52.432;4.780;2023-04-01T05:42:00;3.63;;;2.50;;
44145;SDS011;29809;52.432;4.780;2023-04-01T05:44:26;3.90;;;2.92;;
44145;SDS011;29809;52.432;4.780;2023-04-01T05:46:54;3.80;;;2.70;;
44145;SDS011;29809;52.432;4.780;2023-04-01T05:49:19;2.78;;;2.13;;
44145;SDS011;29809;52.432;4.780;2023-04-01T05:51:44;6.15;;;2.88;;
44145;SDS011;29809;52.432;4.780;2023-04-01T05:54:10;4.53;;;2.78;;
44145;SDS011;29809;52.432;4.780;2023-04-01T05:56:35;3.63;;;3.22;;
44145;SDS011;29809;52.432;4.780;2023-04-01T05:59:00;10.68;;;3.90;;
44145;SDS011;29809;52.432;4.780;2023-04-01T06:01:26;4.53;;;3.05;;
44145;SDS011;29809;52.432;4.780;2023-04-01T06:03:51;4.18;;;3.22;;
44145;SDS011;29809;52.432;4.780;2023-04-01T06:06:26;4.45;;;3.63;;
44145;SDS011;29809;52.432;4.780;2023-04-01T06:08:52;4.03;;;3.17;;
44145;SDS011;29809;52.432;4.780;2023-04-01T06:19:02;6.35;;;4.90;;
44145;SDS011;29809;52.432;4.780;2023-04-01T06:28:58;9.25;;;6.32;;
44145;SDS011;29809;52.432;4.780;2023-04-01T06:39:14;7.35;;;5.80;;
44145;SDS011;29809;52.432;4.780;2023-04-01T06:55:00;64.10;;;28.17;;
44145;SDS011;29809;52.432;4.780;2023-04-01T06:57:33;80.10;;;29.17;;
44145;SDS011;29809;52.432;4.780;2023-04-01T06:59:59;65.00;;;25.13;;
44145;SDS011;29809;52.432;4.780;2023-04-01T07:02:28;59.55;;;23.23;;
44145;SDS011;29809;52.432;4.780;2023-04-01T07:04:57;58.50;;;22.52;;
44145;SDS011;29809;52.432;4.780;2023-04-01T07:07:31;49.75;;;22.38;;
44145;SDS011;29809;52.432;4.780;2023-04-01T07:09:58;49.53;;;21.05;;
44145;SDS011;29809;52.432;4.780;2023-04-01T07:14:58;39.42;;;17.13;;
44145;SDS011;29809;52.432;4.780;2023-04-01T07:17:33;39.50;;;17.63;;
44145;SDS011;29809;52.432;4.780;2023-04-01T07:22:30;38.80;;;16.23;;
44145;SDS011;29809;52.432;4.780;2023-04-01T07:24:56;41.50;;;17.33;;
44145;SDS011;29809;52.432;4.780;2023-04-01T07:27:23;32.53;;;15.98;;
44145;SDS011;29809;52.432;4.780;2023-04-01T07:29:48;39.50;;;15.45;;
44145;SDS011;29809;52.432;4.780;2023-04-01T07:39:37;26.77;;;12.15;;
44145;SDS011;29809;52.432;4.780;2023-04-01T07:50:18;23.48;;;11.48;;
44145;SDS011;29809;52.432;4.780;2023-04-01T07:52:35;18.70;;;10.02;;
44145;SDS011;29809;52.432;4.780;2023-04-01T07:55:15;19.35;;;10.98;;
44145;SDS011;29809;52.432;4.780;2023-04-01T08:10:38;14.45;;;8.63;;
44145;SDS011;29809;52.432;4.780;2023-04-01T08:18:27;9.80;;;7.22;;
44145;SDS011;29809;52.432;4.780;2023-04-01T08:21:00;11.45;;;7.55;;
44145;SDS011;29809;52.432;4.780;2023-04-01T08:23:30;11.25;;;7.35;;
44145;SDS011;29809;52.432;4.780;2023-04-01T08:26:00;12.18;;;7.53;;
44145;SDS011;29809;52.432;4.780;2023-04-01T08:28:32;13.40;;;6.70;;
44145;SDS011;29809;52.432;4.780;2023-04-01T08:31:01;8.82;;;6.05;;
44145;SDS011;29809;52.432;4.780;2023-04-01T08:33:31;11.15;;;6.65;;
44145;SDS011;29809;52.432;4.780;2023-04-01T08:38:38;8.43;;;6.72;;
44145;SDS011;29809;52.432;4.780;2023-04-01T08:46:26;9.43;;;6.43;;
44145;SDS011;29809;52.432;4.780;2023-04-01T08:57:04;7.95;;;5.63;;
44145;SDS011;29809;52.432;4.780;2023-04-01T09:04:30;6.10;;;5.28;;
44145;SDS011;29809;52.432;4.780;2023-04-01T09:22:18;5.07;;;3.95;;
44145;SDS011;29809;52.432;4.780;2023-04-01T09:27:17;5.97;;;4.10;;
44145;SDS011;29809;52.432;4.780;2023-04-01T09:39:56;5.50;;;3.85;;
44145;SDS011;29809;52.432;4.780;2023-04-01T09:42:32;4.80;;;4.00;;
44145;SDS011;29809;52.432;4.780;2023-04-01T09:45:01;5.60;;;4.00;;
44145;SDS011;29809;52.432;4.780;2023-04-01T10:02:50;6.32;;;4.32;;
44145;SDS011;29809;52.432;4.780;2023-04-01T10:15:59;6.97;;;4.75;;
44145;SDS011;29809;52.432;4.780;2023-04-01T10:18:35;6.63;;;4.82;;
44145;SDS011;29809;52.432;4.780;2023-04-01T10:34:01;5.25;;;4.28;;
44145;SDS011;29809;52.432;4.780;2023-04-01T10:36:39;5.20;;;3.75;;
44145;SDS011;29809;52.432;4.780;2023-04-01T10:44:51;5.78;;;4.28;;
44145;SDS011;29809;52.432;4.780;2023-04-01T11:19:54;6.72;;;4.05;;
44145;SDS011;29809;52.432;4.780;2023-04-01T11:35:57;12.35;;;4.20;;
44145;SDS011;29809;52.432;4.780;2023-04-01T11:43:45;10.15;;;3.95;;
44145;SDS011;29809;52.432;4.780;2023-04-01T11:46:19;27.90;;;5.30;;
44145;SDS011;29809;52.432;4.780;2023-04-01T11:48:51;9.80;;;3.67;;
44145;SDS011;29809;52.432;4.780;2023-04-01T11:51:29;8.55;;;3.70;;
44145;SDS011;29809;52.432;4.780;2023-04-01T11:56:58;7.18;;;3.83;;
44145;SDS011;29809;52.432;4.780;2023-04-01T12:05:14;10.15;;;3.90;;
44145;SDS011;29809;52.432;4.780;2023-04-01T12:07:51;5.63;;;3.67;;
44145;SDS011;29809;52.432;4.780;2023-04-01T12:10:32;6.40;;;3.47;;
44145;SDS011;29809;52.432;4.780;2023-04-01T12:18:32;6.15;;;3.75;;
44145;SDS011;29809;52.432;4.780;2023-04-01T12:21:14;6.25;;;3.30;;
44145;SDS011;29809;52.432;4.780;2023-04-01T12:31:31;6.15;;;3.33;;
44145;SDS011;29809;52.432;4.780;2023-04-01T12:34:09;5.25;;;3.85;;
44145;SDS011;29809;52.432;4.780;2023-04-01T12:36:40;5.50;;;3.47;;
44145;SDS011;29809;52.432;4.780;2023-04-01T12:47:08;5.93;;;3.35;;
44145;SDS011;29809;52.432;4.780;2023-04-01T13:07:26;3.08;;;2.63;;
44145;SDS011;29809;52.432;4.780;2023-04-01T13:10:02;4.38;;;3.22;;
44145;SDS011;29809;52.432;4.780;2023-04-01T13:17:46;4.68;;;2.90;;
44145;SDS011;29809;52.432;4.780;2023-04-01T13:20:21;3.22;;;2.60;;
44145;SDS011;29809;52.432;4.780;2023-04-01T13:27:51;4.30;;;2.97;;
44145;SDS011;29809;52.432;4.780;2023-04-01T13:32:47;3.90;;;2.55;;
44145;SDS011;29809;52.432;4.780;2023-04-01T13:40:26;3.25;;;2.30;;
44145;SDS011;29809;52.432;4.780;2023-04-01T13:43:04;4.03;;;2.85;;
44145;SDS011;29809;52.432;4.780;2023-04-01T13:56:04;2.53;;;2.15;;
44145;SDS011;29809;52.432;4.780;2023-04-01T14:03:37;2.20;;;2.00;;
44145;SDS011;29809;52.432;4.780;2023-04-01T14:13:40;2.22;;;2.00;;
44145;SDS011;29809;52.432;4.780;2023-04-01T14:16:32;2.40;;;2.20;;
44145;SDS011;29809;52.432;4.780;2023-04-01T14:21:38;2.25;;;1.90;;
44145;SDS011;29809;52.432;4.780;2023-04-01T14:29:36;2.40;;;2.20;;
44145;SDS011;29809;52.432;4.780;2023-04-01T14:47:36;2.58;;;1.80;;
44145;SDS011;29809;52.432;4.780;2023-04-01T14:50:20;2.08;;;1.80;;
44145;SDS011;29809;52.432;4.780;2023-04-01T14:52:59;1.80;;;1.70;;
44145;SDS011;29809;52.432;4.780;2023-04-01T14:58:11;4.07;;;1.70;;
44145;SDS011;29809;52.432;4.780;2023-04-01T15:00:41;2.08;;;1.55;;
44145;SDS011;29809;52.432;4.780;2023-04-01T15:10:53;3.35;;;1.80;;
44145;SDS011;29809;52.432;4.780;2023-04-01T15:16:05;1.63;;;1.45;;
44145;SDS011;29809;52.432;4.780;2023-04-01T15:31:31;2.47;;;1.90;;
44145;SDS011;29809;52.432;4.780;2023-04-01T15:36:51;2.38;;;1.85;;
44145;SDS011;29809;52.432;4.780;2023-04-01T15:42:53;1.75;;;1.60;;
44145;SDS011;29809;52.432;4.780;2023-04-01T15:49:43;1.92;;;1.73;;
44145;SDS011;29809;52.432;4.780;2023-04-01T15:57:51;3.13;;;2.03;;
44145;SDS011;29809;52.432;4.780;2023-04-01T16:03:15;3.50;;;1.35;;
44145;SDS011;29809;52.432;4.780;2023-04-01T16:05:49;1.83;;;1.63;;
44145;SDS011;29809;52.432;4.780;2023-04-01T16:08:37;4.63;;;1.83;;
44145;SDS011;29809;52.432;4.780;2023-04-01T16:11:11;3.80;;;1.48;;
44145;SDS011;29809;52.432;4.780;2023-04-01T16:16:21;1.90;;;1.63;;
44145;SDS011;29809;52.432;4.780;2023-04-01T16:21:37;1.52;;;1.42;;
44145;SDS011;29809;52.432;4.780;2023-04-01T16:24:10;2.05;;;1.88;;
44145;SDS011;29809;52.432;4.780;2023-04-01T16:26:41;2.20;;;1.60;;
44145;SDS011;29809;52.432;4.780;2023-04-01T16:31:54;2.70;;;1.58;;
44145;SDS011;29809;52.432;4.780;2023-04-01T16:39:41;1.85;;;1.33;;
44145;SDS011;29809;52.432;4.780;2023-04-01T16:42:31;4.72;;;1.50;;
44145;SDS011;29809;52.432;4.780;2023-04-01T16:45:02;3.35;;;1.30;;
44145;SDS011;29809;52.432;4.780;2023-04-01T16:47:32;2.13;;;1.35;;
44145;SDS011;29809;52.432;4.780;2023-04-01T16:50:13;2.75;;;1.40;;
44145;SDS011;29809;52.432;4.780;2023-04-01T16:55:52;1.95;;;1.23;;
44145;SDS011;29809;52.432;4.780;2023-04-01T16:57:56;2.47;;;1.33;;
44145;SDS011;29809;52.432;4.780;2023-04-01T17:00:27;1.58;;;1.20;;
44145;SDS011;29809;52.432;4.780;2023-04-01T17:08:21;1.05;;;1.05;;
44145;SDS011;29809;52.432;4.780;2023-04-01T17:11:00;1.52;;;1.30;;
44145;SDS011;29809;52.432;4.780;2023-04-01T17:13:50;1.20;;;1.10;;
44145;SDS011;29809;52.432;4.780;2023-04-01T17:18:59;1.13;;;0.93;;
44145;SDS011;29809;52.432;4.780;2023-04-01T17:24:14;1.50;;;1.08;;
44145;SDS011;29809;52.432;4.780;2023-04-01T17:29:33;1.20;;;1.10;;
44145;SDS011;29809;52.432;4.780;2023-04-01T17:34:46;1.25;;;1.05;;
44145;SDS011;29809;52.432;4.780;2023-04-01T17:37:28;0.75;;;0.70;;
44145;SDS011;29809;52.432;4.780;2023-04-01T17:42:33;1.48;;;1.05;;
44145;SDS011;29809;52.432;4.780;2023-04-01T17:45:21;0.70;;;0.70;;
44145;SDS011;29809;52.432;4.780;2023-04-01T17:50:23;1.50;;;1.10;;
44145;SDS011;29809;52.432;4.780;2023-04-01T17:55:43;2.70;;;0.93;;
44145;SDS011;29809;52.432;4.780;2023-04-01T17:58:21;0.85;;;0.85;;
44145;SDS011;29809;52.432;4.780;2023-04-01T18:03:37;3.63;;;1.20;;
44145;SDS011;29809;52.432;4.780;2023-04-01T18:06:12;3.20;;;1.00;;
44145;SDS011;29809;52.432;4.780;2023-04-01T18:18:47;0.70;;;0.70;;
44145;SDS011;29809;52.432;4.780;2023-04-01T18:23:47;1.85;;;0.98;;
44145;SDS011;29809;52.432;4.780;2023-04-01T18:26:27;2.30;;;1.20;;
44145;SDS011;29809;52.432;4.780;2023-04-01T18:29:04;1.88;;;1.02;;
44145;SDS011;29809;52.432;4.780;2023-04-01T18:31:37;0.85;;;0.85;;
44145;SDS011;29809;52.432;4.780;2023-04-01T18:34:21;1.60;;;1.27;;
44145;SDS011;29809;52.432;4.780;2023-04-01T18:36:59;2.05;;;0.77;;
44145;SDS011;29809;52.432;4.780;2023-04-01T18:39:39;2.35;;;1.00;;
44145;SDS011;29809;52.432;4.780;2023-04-01T18:42:07;1.83;;;1.00;;
44145;SDS011;29809;52.432;4.780;2023-04-01T18:44:45;1.95;;;1.45;;
44145;SDS011;29809;52.432;4.780;2023-04-01T18:47:45;1.17;;;0.98;;
44145;SDS011;29809;52.432;4.780;2023-04-01T18:50:11;1.95;;;1.33;;
44145;SDS011;29809;52.432;4.780;2023-04-01T18:52:42;2.30;;;1.40;;
44145;SDS011;29809;52.432;4.780;2023-04-01T18:55:22;1.40;;;1.30;;
44145;SDS011;29809;52.432;4.780;2023-04-01T18:57:49;1.60;;;1.20;;
44145;SDS011;29809;52.432;4.780;2023-04-01T19:00:22;1.33;;;1.23;;
44145;SDS011;29809;52.432;4.780;2023-04-01T19:02:55;1.85;;;1.38;;
44145;SDS011;29809;52.432;4.780;2023-04-01T19:05:29;2.03;;;1.70;;
44145;SDS011;29809;52.432;4.780;2023-04-01T19:07:55;1.63;;;1.50;;
44145;SDS011;29809;52.432;4.780;2023-04-01T19:20:34;1.92;;;1.70;;
44145;SDS011;29809;52.432;4.780;2023-04-01T19:25:47;2.38;;;1.42;;
44145;SDS011;29809;52.432;4.780;2023-04-01T19:30:53;2.65;;;1.48;;
44145;SDS011;29809;52.432;4.780;2023-04-01T19:33:22;3.60;;;1.90;;
44145;SDS011;29809;52.432;4.780;2023-04-01T19:36:05;5.47;;;1.50;;
44145;SDS011;29809;52.432;4.780;2023-04-01T19:38:39;3.63;;;1.52;;
44145;SDS011;29809;52.432;4.780;2023-04-01T19:43:39;1.95;;;1.73;;
44145;SDS011;29809;52.432;4.780;2023-04-01T19:57:15;1.77;;;1.65;;
44145;SDS011;29809;52.432;4.780;2023-04-01T20:02:34;2.00;;;1.52;;
44145;SDS011;29809;52.432;4.780;2023-04-01T20:05:24;2.83;;;1.60;;
44145;SDS011;29809;52.432;4.780;2023-04-01T20:07:55;1.88;;;1.77;;
44145;SDS011;29809;52.432;4.780;2023-04-01T20:13:19;2.05;;;1.85;;
44145;SDS011;29809;52.432;4.780;2023-04-01T20:15:47;1.88;;;1.63;;
44145;SDS011;29809;52.432;4.780;2023-04-01T20:18:23;1.70;;;1.58;;
44145;SDS011;29809;52.432;4.780;2023-04-01T20:20:57;2.55;;;1.50;;
44145;SDS011;29809;52.432;4.780;2023-04-01T20:23:26;2.38;;;1.48;;
44145;SDS011;29809;52.432;4.780;2023-04-01T20:26:08;1.67;;;1.50;;
44145;SDS011;29809;52.432;4.780;2023-04-01T20:28:44;3.28;;;2.10;;
44145;SDS011;29809;52.432;4.780;2023-04-01T20:36:06;2.15;;;1.80;;
44145;SDS011;29809;52.432;4.780;2023-04-01T20:39:01;2.15;;;1.75;;
44145;SDS011;29809;52.432;4.780;2023-04-01T20:41:41;1.63;;;1.52;;
44145;SDS011;29809;52.432;4.780;2023-04-01T20:44:11;2.10;;;1.90;;
44145;SDS011;29809;52.432;4.780;2023-04-01T20:46:59;2.65;;;1.95;;
44145;SDS011;29809;52.432;4.780;2023-04-01T20:52:02;6.97;;;1.73;;
44145;SDS011;29809;52.432;4.780;2023-04-01T20:59:27;3.08;;;1.95;;
44145;SDS011;29809;52.432;4.780;2023-04-01T21:07:14;3.35;;;1.70;;
44145;SDS011;29809;52.432;4.780;2023-04-01T21:19:52;2.72;;;2.03;;
44145;SDS011;29809;52.432;4.780;2023-04-01T21:32:40;3.08;;;2.08;;
44145;SDS011;29809;52.432;4.780;2023-04-01T21:37:54;1.92;;;1.55;;
44145;SDS011;29809;52.432;4.780;2023-04-01T21:51:06;2.20;;;2.00;;
44145;SDS011;29809;52.432;4.780;2023-04-01T21:56:18;2.30;;;2.10;;
44145;SDS011;29809;52.432;4.780;2023-04-01T21:59:04;2.47;;;2.28;;
44145;SDS011;29809;52.432;4.780;2023-04-01T22:04:05;2.30;;;2.08;;
44145;SDS011;29809;52.432;4.780;2023-04-01T22:06:38;2.25;;;1.88;;
44145;SDS011;29809;52.432;4.780;2023-04-01T22:09:11;3.33;;;2.00;;
44145;SDS011;29809;52.432;4.780;2023-04-01T22:14:05;4.38;;;2.42;;
44145;SDS011;29809;52.432;4.780;2023-04-01T22:27:23;3.17;;;2.08;;
44145;SDS011;29809;52.432;4.780;2023-04-01T22:30:06;3.47;;;2.45;;
44145;SDS011;29809;52.432;4.780;2023-04-01T22:32:48;3.20;;;2.47;;
44145;SDS011;29809;52.432;4.780;2023-04-01T22:37:47;3.47;;;2.53;;
44145;SDS011;29809;52.432;4.780;2023-04-01T22:40:19;2.97;;;2.42;;
44145;SDS011;29809;52.432;4.780;2023-04-01T22:42:46;4.70;;;2.40;;
44145;SDS011;29809;52.432;4.780;2023-04-01T22:47:57;3.92;;;2.72;;
44145;SDS011;29809;52.432;4.780;2023-04-01T22:50:30;2.97;;;2.47;;
44145;SDS011;29809;52.432;4.780;2023-04-01T22:53:00;3.63;;;2.33;;
44145;SDS011;29809;52.432;4.780;2023-04-01T22:55:30;2.38;;;2.03;;
44145;SDS011;29809;52.432;4.780;2023-04-01T23:00:24;3.65;;;2.45;;
44145;SDS011;29809;52.432;4.780;2023-04-01T23:05:25;3.58;;;2.35;;
44145;SDS011;29809;52.432;4.780;2023-04-01T23:10:23;3.40;;;2.60;;
44145;SDS011;29809;52.432;4.780;2023-04-01T23:12:49;4.07;;;2.58;;
44145;SDS011;29809;52.432;4.780;2023-04-01T23:15:16;3.80;;;2.17;;
44145;SDS011;29809;52.432;4.780;2023-04-01T23:17:42;2.45;;;2.20;;
44145;SDS011;29809;52.432;4.780;2023-04-01T23:35:36;2.25;;;2.05;;
44145;SDS011;29809;52.432;4.780;2023-04-01T23:38:11;2.92;;;2.13;;
44145;SDS011;29809;52.432;4.780;2023-04-01T23:40:36;3.10;;;2.13;;
44145;SDS011;29809;52.432;4.780;2023-04-01T23:43:01;3.03;;;2.53;;
44145;SDS011;29809;52.432;4.780;2023-04-01T23:45:27;3.08;;;2.25;;
44145;SDS011;29809;52.432;4.780;2023-04-01T23:47:52;2.92;;;2.20;;
44145;SDS011;29809;52.432;4.780;2023-04-01T23:50:21;2.40;;;2.20;;
44145;SDS011;29809;52.432;4.780;2023-04-01T23:53:33;2.72;;;2.40;;
44145;SDS011;29809;52.432;4.780;2023-04-01T23:55:33;2.92;;;2.30;;
